Time;durP1;ratioP1;P1;durP2;ratioP2;P2;SDS_P1;SDS_P2;PMS_P1;PMS_P2;Temp;Humidity;BMP_temperature;BMP_pressure;BME280_temperature;BME280_humidity;BME280_pressure;Samples;Min_cycle;Max_cycle;Signal;HPM_P1;HPM_P2
2023/04/27 00:01:14;;;;;;;;;;;;;;;12.45;56.71;99207.06;5134163;27;19932;-90
2023/04/27 00:03:40;;;;;;;;;;;;;;;12.40;57.46;99211.66;5136308;27;19915;-89
2023/04/27 00:06:07;;;;;;;;;;;;;;;12.61;56.47;99218.06;5153144;27;20396;-89
2023/04/27 00:08:32;;;;;;;;;;;;;;;12.46;56.92;99224.69;5153504;27;20032;-91
2023/04/27 00:10:58;;;;;;;;;;;;;;;12.46;56.66;99229.97;5130521;27;19939;-89
2023/04/27 00:13:24;;;;;;;;;;;;;;;12.49;56.25;99220.16;5132168;27;19924;-88
2023/04/27 00:15:51;;;;;;;;;;;;;;;12.49;55.85;99238.69;5132765;27;19922;-88
2023/04/27 00:18:17;;;;;;;;;;;;;;;12.47;56.47;99239.66;5134305;27;19911;-89
2023/04/27 00:20:43;;;;;;;;;;;;;;;12.53;56.89;99236.81;5134948;27;19923;-88
2023/04/27 00:23:08;;;;;;;;;;;;;;;12.55;55.93;99237.63;5113881;27;19911;-88
2023/04/27 00:25:34;;;;;;;;;;;;;;;12.42;57.58;99247.72;5132774;27;19911;-91
2023/04/27 00:27:59;;;;;;;;;;;;;;;12.38;57.52;99247.88;5113073;27;19911;-89
2023/04/27 00:30:25;;;;;;;;;;;;;;;12.35;57.45;99251.47;5132417;27;19997;-87
2023/04/27 00:32:51;;;;;;;;;;;;;;;12.23;57.82;99257.09;5133389;27;19933;-92
2023/04/27 00:35:16;;;;;;;;;;;;;;;12.26;58.90;99262.31;5129891;27;20395;-89
2023/04/27 00:37:44;;;;;;;;;;;;;;;12.16;59.41;99265.22;5154895;27;20311;-89
2023/04/27 00:40:10;;;;;;;;;;;;;;;12.04;60.83;99268.19;5135567;27;19921;-90
2023/04/27 00:42:36;;;;;;;;;;;;;;;12.04;60.34;99278.78;5128308;27;19993;-90
2023/04/27 00:45:02;;;;;;;;;;;;;;;11.93;61.96;99276.41;5134367;27;19945;-89
2023/04/27 00:47:29;;;;;;;;;;;;;;;11.85;62.59;99280.13;5134511;27;20001;-90
2023/04/27 00:49:55;;;;;;;;;;;;;;;11.95;63.66;99286.94;5116508;27;19915;-89
2023/04/27 00:52:21;;;;;;;;;;;;;;;11.74;63.88;99278.66;5133917;27;19911;-91
2023/04/27 00:54:49;;;;;;;;;;;;;;;11.59;65.54;99281.72;5119674;27;19923;-89
2023/04/27 00:57:16;;;;;;;;;;;;;;;11.65;65.90;99285.06;5134481;27;20002;-90
2023/04/27 00:59:42;;;;;;;;;;;;;;;11.56;64.87;99290.56;5102498;27;20385;-93
2023/04/27 01:02:08;;;;;;;;;;;;;;;11.43;65.90;99292.66;5102762;27;19964;-91
2023/04/27 01:04:35;;;;;;;;;;;;;;;11.46;65.17;99296.97;5102638;27;20396;-89
2023/04/27 01:07:01;;;;;;;;;;;;;;;11.42;66.63;99298.84;5132045;27;19915;-92
2023/04/27 01:09:28;;;;;;;;;;;;;;;11.32;65.59;99288.53;5136928;27;19937;-91
2023/04/27 01:11:53;;;;;;;;;;;;;;;11.36;65.06;99296.34;5136054;27;19912;-92
2023/04/27 01:14:20;;;;;;;;;;;;;;;11.36;65.56;99300.78;5153075;27;19922;-92
2023/04/27 01:16:46;;;;;;;;;;;;;;;11.39;64.25;99313.91;5125690;27;19938;-90
2023/04/27 01:19:11;;;;;;;;;;;;;;;11.49;64.82;99319.81;5128257;27;19911;-91
2023/04/27 01:21:37;;;;;;;;;;;;;;;11.34;65.05;99318.41;5153218;27;19933;-90
2023/04/27 01:24:03;;;;;;;;;;;;;;;11.25;65.42;99322.16;5154186;27;19910;-91
2023/04/27 01:26:29;;;;;;;;;;;;;;;11.35;65.23;99322.78;5153408;27;19961;-91
2023/04/27 01:28:57;;;;;;;;;;;;;;;11.29;64.58;99324.69;5134829;27;19958;-92
2023/04/27 01:31:24;;;;;;;;;;;;;;;11.43;65.02;99327.00;5133847;28;19957;-91
2023/04/27 01:33:49;;;;;;;;;;;;;;;11.27;64.60;99334.41;5131934;28;19915;-89
2023/04/27 01:36:16;;;;;;;;;;;;;;;11.12;65.18;99334.75;5131491;28;20296;-91
2023/04/27 01:38:41;;;;;;;;;;;;;;;11.18;66.10;99333.75;5142629;27;20395;-90
2023/04/27 01:41:08;;;;;;;;;;;;;;;11.10;65.76;99334.78;5157076;27;19994;-90
2023/04/27 01:43:33;;;;;;;;;;;;;;;11.30;65.51;99330.81;5146819;27;19968;-90
2023/04/27 01:46:09;;;;;;;;;;;;;;;11.31;65.34;99339.59;5140308;27;20010;-89
2023/04/27 01:48:34;;;;;;;;;;;;;;;11.15;64.29;99344.38;5119404;27;20342;-89
2023/04/27 01:51:00;;;;;;;;;;;;;;;11.24;64.75;99345.03;5156359;27;19939;-89
2023/04/27 01:53:25;;;;;;;;;;;;;;;11.34;63.82;99348.34;5156078;27;19911;-88
2023/04/27 01:55:53;;;;;;;;;;;;;;;11.43;63.38;99350.75;5156444;27;20293;-90
2023/04/27 01:58:20;;;;;;;;;;;;;;;11.27;62.65;99352.03;5155530;27;20398;-91
2023/04/27 02:00:45;;;;;;;;;;;;;;;11.40;62.00;99340.28;5156964;27;19956;-92
2023/04/27 02:03:10;;;;;;;;;;;;;;;11.43;63.26;99344.59;5137919;27;19998;-91
2023/04/27 02:05:36;;;;;;;;;;;;;;;11.44;61.53;99347.19;5156233;27;19911;-91
2023/04/27 02:08:01;;;;;;;;;;;;;;;11.47;61.50;99340.97;5156118;27;19911;-92
2023/04/27 02:10:26;;;;;;;;;;;;;;;11.46;61.69;99349.81;5124287;27;19911;-89
2023/04/27 02:12:52;;;;;;;;;;;;;;;11.58;61.95;99359.22;5116791;27;19934;-89
2023/04/27 02:15:17;;;;;;;;;;;;;;;11.60;61.48;99355.63;5136542;27;19911;-91
2023/04/27 02:17:43;;;;;;;;;;;;;;;11.59;60.65;99356.53;5155732;27;19915;-91
2023/04/27 02:20:09;;;;;;;;;;;;;;;11.50;60.55;99351.47;5155273;27;19922;-89
2023/04/27 02:22:35;;;;;;;;;;;;;;;11.41;60.38;99357.84;5137191;27;20445;-88
2023/04/27 02:25:00;;;;;;;;;;;;;;;11.47;59.24;99354.19;5155432;27;19962;-87
2023/04/27 02:27:25;;;;;;;;;;;;;;;11.57;58.74;99360.09;5155722;27;19934;-88
2023/04/27 02:29:51;;;;;;;;;;;;;;;11.62;59.65;99360.88;5136962;27;19917;-88
2023/04/27 02:32:16;;;;;;;;;;;;;;;11.60;59.68;99366.22;5138334;27;19972;-88
2023/04/27 02:34:41;;;;;;;;;;;;;;;11.51;58.84;99362.91;5135539;27;19911;-89
2023/04/27 02:37:07;;;;;;;;;;;;;;;11.44;58.81;99368.31;5154858;27;20007;-90
2023/04/27 02:39:32;;;;;;;;;;;;;;;11.41;58.38;99375.47;5155599;27;20013;-92
2023/04/27 02:41:59;;;;;;;;;;;;;;;11.52;58.15;99373.44;5153436;27;20308;-88
2023/04/27 02:44:24;;;;;;;;;;;;;;;11.44;58.14;99376.25;5155028;27;20279;-87
2023/04/27 02:46:49;;;;;;;;;;;;;;;11.54;57.67;99376.03;5155220;27;19943;-88
2023/04/27 02:49:15;;;;;;;;;;;;;;;11.55;57.83;99386.56;5144284;27;19918;-88
2023/04/27 02:51:40;;;;;;;;;;;;;;;11.57;57.02;99389.16;5116209;27;19958;-89
2023/04/27 02:54:06;;;;;;;;;;;;;;;11.61;57.22;99389.06;5133767;27;19918;-88
2023/04/27 02:56:31;;;;;;;;;;;;;;;11.44;57.28;99392.09;5134030;27;19919;-89
2023/04/27 02:58:56;;;;;;;;;;;;;;;11.57;56.46;99390.06;5116164;27;19916;-91
2023/04/27 03:01:22;;;;;;;;;;;;;;;11.68;56.14;99387.16;5134644;27;19908;-91
2023/04/27 03:03:47;;;;;;;;;;;;;;;11.74;55.53;99397.56;5116170;27;19919;-88
2023/04/27 03:06:13;;;;;;;;;;;;;;;11.40;55.85;99393.09;5134466;27;19919;-88
2023/04/27 03:08:38;;;;;;;;;;;;;;;11.69;55.46;99401.22;5134068;27;20342;-89
2023/04/27 03:11:04;;;;;;;;;;;;;;;11.41;55.37;99399.22;5134098;27;20303;-91
2023/04/27 03:13:30;;;;;;;;;;;;;;;11.48;56.03;99395.56;5108709;27;19919;-91
2023/04/27 03:15:55;;;;;;;;;;;;;;;11.59;55.15;99398.81;5136389;27;19935;-89
2023/04/27 03:18:21;;;;;;;;;;;;;;;11.54;54.86;99402.44;5154711;27;20308;-91
2023/04/27 03:20:46;;;;;;;;;;;;;;;11.74;55.24;99401.97;5154506;27;19907;-92
2023/04/27 03:23:11;;;;;;;;;;;;;;;11.79;55.09;99400.09;5134548;27;20443;-93
2023/04/27 03:25:37;;;;;;;;;;;;;;;11.69;54.69;99410.00;5119543;27;19915;-93
2023/04/27 03:28:03;;;;;;;;;;;;;;;11.64;55.46;99406.63;5155788;27;20333;-93
2023/04/27 03:30:59;;;;;;;;;;;;;;;11.64;54.79;99404.84;5135467;27;19911;-91
2023/04/27 03:33:27;;;;;;;;;;;;;;;11.42;55.69;99408.91;5136687;27;20020;-93
2023/04/27 03:35:56;;;;;;;;;;;;;;;11.46;55.27;99413.19;5118200;27;19911;-94
2023/04/27 03:38:22;;;;;;;;;;;;;;;11.49;55.44;99423.69;5101926;27;19926;-94
2023/04/27 03:40:48;;;;;;;;;;;;;;;11.55;54.16;99423.53;5118052;27;20367;-94
2023/04/27 03:43:17;;;;;;;;;;;;;;;11.52;54.97;99420.97;5101950;27;19921;-93
2023/04/27 03:45:42;;;;;;;;;;;;;;;11.47;54.56;99421.06;5135430;27;19911;-92
2023/04/27 03:48:08;;;;;;;;;;;;;;;11.38;54.15;99417.78;5133810;27;19980;-93
2023/04/27 03:50:39;;;;;;;;;;;;;;;11.55;54.00;99426.19;5134292;27;19911;-94
2023/04/27 03:53:05;;;;;;;;;;;;;;;11.64;54.53;99425.13;5137691;27;19915;-95
2023/04/27 03:55:30;;;;;;;;;;;;;;;11.53;53.40;99429.78;5124336;27;19940;-95
2023/04/27 03:57:56;;;;;;;;;;;;;;;11.66;54.66;99428.56;5137450;27;19925;-93
2023/04/27 04:00:23;;;;;;;;;;;;;;;11.55;53.79;99434.09;5156995;27;19915;-96
2023/04/27 04:02:50;;;;;;;;;;;;;;;11.51;54.18;99440.38;5126588;27;19938;-94
2023/04/27 04:05:19;;;;;;;;;;;;;;;11.57;54.17;99429.69;5118028;27;19920;-94
2023/04/27 04:07:47;;;;;;;;;;;;;;;11.45;53.85;99437.88;5125542;27;19932;-93
2023/04/27 04:10:12;;;;;;;;;;;;;;;11.47;54.14;99444.00;5130072;27;19922;-95
2023/04/27 04:12:38;;;;;;;;;;;;;;;11.52;54.14;99441.25;5118312;27;19915;-96
2023/04/27 04:15:10;;;;;;;;;;;;;;;11.54;53.90;99445.59;5122755;27;20013;-96
2023/04/27 04:17:38;;;;;;;;;;;;;;;11.68;53.95;99449.69;5123695;27;20376;-92
2023/04/27 04:20:10;;;;;;;;;;;;;;;11.60;54.87;99449.84;5114529;27;19916;-94
2023/04/27 04:22:36;;;;;;;;;;;;;;;11.55;54.38;99457.03;5128690;27;19915;-96
2023/04/27 04:25:03;;;;;;;;;;;;;;;11.52;53.77;99457.97;5113915;27;19997;-95
2023/04/27 04:27:33;;;;;;;;;;;;;;;11.56;54.09;99462.28;5124513;27;19919;-94
2023/04/27 04:29:59;;;;;;;;;;;;;;;11.65;55.02;99456.78;5127798;27;19977;-94
2023/04/27 04:32:30;;;;;;;;;;;;;;;11.80;53.34;99466.13;5130616;27;20384;-91
2023/04/27 04:34:57;;;;;;;;;;;;;;;11.93;53.05;99465.88;5117345;27;20415;-94
2023/04/27 04:37:23;;;;;;;;;;;;;;;12.07;54.52;99474.31;5124517;27;20373;-92
2023/04/27 04:39:51;;;;;;;;;;;;;;;12.00;52.29;99470.09;5130298;27;19987;-94
2023/04/27 04:42:22;;;;;;;;;;;;;;;12.02;53.17;99473.59;5112318;28;19971;-94
2023/04/27 04:44:51;;;;;;;;;;;;;;;12.08;53.14;99481.38;5111104;28;19912;-93
2023/04/27 04:47:16;;;;;;;;;;;;;;;12.02;51.64;99477.97;5112721;28;19997;-94
2023/04/27 04:49:41;;;;;;;;;;;;;;;12.11;52.18;99477.75;5109839;28;19924;-91
2023/04/27 04:52:10;;;;;;;;;;;;;;;11.98;52.06;99483.34;5115368;27;19912;-90
2023/04/27 04:54:37;;;;;;;;;;;;;;;11.79;52.22;99482.03;5111137;28;19919;-95
2023/04/27 04:57:04;;;;;;;;;;;;;;;12.02;52.09;99477.97;5117852;27;20007;-94
2023/04/27 04:59:35;;;;;;;;;;;;;;;12.03;52.28;99487.66;5112218;27;20381;-95
2023/04/27 05:02:01;;;;;;;;;;;;;;;12.04;52.15;99497.34;5100170;27;19925;-96
2023/04/27 05:04:27;;;;;;;;;;;;;;;12.22;52.06;99490.72;5111127;28;20000;-95
2023/04/27 05:06:53;;;;;;;;;;;;;;;12.03;51.58;99495.59;5112928;28;19943;-93
2023/04/27 05:09:19;;;;;;;;;;;;;;;11.80;52.61;99500.50;5124087;27;19907;-95
2023/04/27 05:11:44;;;;;;;;;;;;;;;11.88;52.69;99500.31;5112002;27;19943;-95
2023/04/27 05:14:10;;;;;;;;;;;;;;;11.90;52.47;99497.63;5121325;27;20330;-92
2023/04/27 05:16:35;;;;;;;;;;;;;;;12.06;51.75;99500.81;5117670;27;19920;-91
2023/04/27 05:19:04;;;;;;;;;;;;;;;12.17;50.85;99504.03;5116416;27;19912;-92
2023/04/27 05:21:30;;;;;;;;;;;;;;;12.06;51.81;99509.59;5111375;28;20768;-93
2023/04/27 05:24:02;;;;;;;;;;;;;;;11.89;50.00;99514.38;5114203;28;19920;-92
2023/04/27 05:26:30;;;;;;;;;;;;;;;11.79;50.40;99508.44;5110905;28;20427;-95
2023/04/27 05:28:55;;;;;;;;;;;;;;;12.14;51.92;99509.41;5123071;28;20309;-95
2023/04/27 05:31:21;;;;;;;;;;;;;;;12.32;52.04;99508.94;5112803;28;19923;-94
2023/04/27 05:33:46;;;;;;;;;;;;;;;12.36;51.30;99517.69;5131197;28;19944;-96
2023/04/27 05:36:20;;;;;;;;;;;;;;;12.24;49.78;99515.38;5126377;28;19919;-91
2023/04/27 05:38:46;;;;;;;;;;;;;;;12.47;50.41;99515.63;5122569;28;19918;-90
2023/04/27 05:41:11;;;;;;;;;;;;;;;12.33;50.20;99515.13;5113151;28;20369;-91
2023/04/27 05:43:37;;;;;;;;;;;;;;;12.48;49.83;99519.16;5116527;28;20396;-89
2023/04/27 05:46:03;;;;;;;;;;;;;;;12.49;49.69;99523.53;5110274;28;19916;-89
2023/04/27 05:48:36;;;;;;;;;;;;;;;12.16;50.31;99528.78;5115206;28;20011;-92
2023/04/27 05:51:02;;;;;;;;;;;;;;;12.21;48.81;99532.16;5115748;28;19915;-96
2023/04/27 05:53:28;;;;;;;;;;;;;;;12.43;48.31;99529.84;5134232;28;19918;-96
2023/04/27 05:56:10;;;;;;;;;;;;;;;12.43;48.25;99532.50;5131405;28;19978;-96
2023/04/27 05:58:35;;;;;;;;;;;;;;;12.44;48.72;99536.88;5132059;28;19911;-94
2023/04/27 06:01:04;;;;;;;;;;;;;;;12.55;48.66;99541.91;5127553;28;19958;-93
2023/04/27 06:03:37;;;;;;;;;;;;;;;12.57;48.71;99536.56;5112259;28;19995;-96
2023/04/27 06:06:05;;;;;;;;;;;;;;;12.75;49.00;99545.81;5115458;28;19947;-95
2023/04/27 06:08:30;;;;;;;;;;;;;;;12.54;48.30;99548.09;5119396;28;19912;-91
2023/04/27 06:10:56;;;;;;;;;;;;;;;12.52;48.67;99542.84;5127096;28;19918;-93
2023/04/27 06:13:21;;;;;;;;;;;;;;;12.97;48.22;99544.31;5123212;28;20085;-91
2023/04/27 06:15:47;;;;;;;;;;;;;;;13.11;48.53;99543.06;5130441;28;19919;-86
2023/04/27 06:18:12;;;;;;;;;;;;;;;13.15;47.89;99532.34;5136995;27;19919;-90
2023/04/27 06:20:47;;;;;;;;;;;;;;;13.00;46.46;99544.22;5128742;28;19943;-93
2023/04/27 06:23:12;;;;;;;;;;;;;;;13.07;46.86;99545.81;5137640;28;19928;-93
2023/04/27 06:25:40;;;;;;;;;;;;;;;13.08;48.56;99542.25;5139420;27;19900;-90
2023/04/27 06:28:05;;;;;;;;;;;;;;;13.23;47.75;99550.69;5168038;27;19980;-91
2023/04/27 06:30:31;;;;;;;;;;;;;;;13.18;47.39;99550.81;5180610;27;19903;-91
2023/04/27 06:32:56;;;;;;;;;;;;;;;13.30;48.98;99546.97;5154372;27;19923;-91
2023/04/27 06:35:21;;;;;;;;;;;;;;;13.25;46.06;99543.56;5140625;27;19916;-95
2023/04/27 06:37:47;;;;;;;;;;;;;;;13.25;48.37;99548.84;5131727;27;20341;-92
2023/04/27 06:40:12;;;;;;;;;;;;;;;13.38;46.55;99550.28;5136797;27;19933;-92
2023/04/27 06:42:37;;;;;;;;;;;;;;;13.32;46.63;99546.91;5126186;27;20026;-95
2023/04/27 06:45:04;;;;;;;;;;;;;;;13.48;47.39;99544.72;5134766;27;20307;-93
2023/04/27 06:47:29;;;;;;;;;;;;;;;13.68;46.79;99557.38;5128169;27;19916;-94
2023/04/27 06:49:55;;;;;;;;;;;;;;;13.92;45.08;99547.81;5115864;27;19975;-91
2023/04/27 06:52:20;;;;;;;;;;;;;;;13.58;46.42;99548.84;5122420;27;19919;-92
2023/04/27 06:54:46;;;;;;;;;;;;;;;13.61;45.50;99552.25;5136599;27;19984;-93
2023/04/27 06:57:11;;;;;;;;;;;;;;;13.73;46.55;99543.06;5132433;27;19915;-92
2023/04/27 06:59:36;;;;;;;;;;;;;;;13.57;46.25;99547.94;5136704;27;20404;-91
2023/04/27 07:02:02;;;;;;;;;;;;;;;13.71;45.83;99560.78;5132141;27;19911;-93
2023/04/27 07:04:27;;;;;;;;;;;;;;;13.50;46.11;99564.06;5130305;27;19911;-93
2023/04/27 07:06:52;;;;;;;;;;;;;;;13.34;46.07;99561.88;5127281;27;19976;-92
2023/04/27 07:09:18;;;;;;;;;;;;;;;13.48;46.49;99561.47;5137183;27;20325;-92
2023/04/27 07:11:43;;;;;;;;;;;;;;;13.44;46.59;99565.16;5132772;27;20376;-93
2023/04/27 07:14:09;;;;;;;;;;;;;;;13.52;46.54;99562.28;5155537;27;19918;-92
2023/04/27 07:16:35;;;;;;;;;;;;;;;13.50;47.33;99566.72;5136238;27;19915;-92
2023/04/27 07:19:03;;;;;;;;;;;;;;;13.38;45.65;99560.88;5136377;27;20003;-91
2023/04/27 07:21:28;;;;;;;;;;;;;;;13.23;47.70;99567.44;5136076;27;20353;-90
2023/04/27 07:23:54;;;;;;;;;;;;;;;13.46;47.50;99558.00;5154710;27;19911;-91
2023/04/27 07:26:22;;;;;;;;;;;;;;;13.89;48.75;99558.53;5135599;27;19911;-91
2023/04/27 07:28:49;;;;;;;;;;;;;;;14.04;45.90;99557.16;5136354;27;19954;-94
2023/04/27 07:31:14;;;;;;;;;;;;;;;13.88;48.02;99559.41;5136147;27;19911;-91
2023/04/27 07:33:40;;;;;;;;;;;;;;;14.03;48.58;99555.44;5136121;27;19959;-92
2023/04/27 07:36:06;;;;;;;;;;;;;;;14.33;46.59;99556.22;5154107;27;19959;-91
2023/04/27 07:38:31;;;;;;;;;;;;;;;14.41;45.60;99553.31;5135028;27;19911;-93
2023/04/27 07:41:06;;;;;;;;;;;;;;;14.44;46.08;99548.81;5135739;27;19911;-92
2023/04/27 07:43:32;;;;;;;;;;;;;;;14.81;45.95;99559.97;5135382;27;19921;-93
2023/04/27 07:45:57;;;;;;;;;;;;;;;14.90;46.99;99561.44;5135830;27;19911;-92
2023/04/27 07:48:23;;;;;;;;;;;;;;;14.57;45.55;99553.69;5153981;27;19915;-91
2023/04/27 07:50:48;;;;;;;;;;;;;;;14.26;46.17;99552.91;5135718;27;19915;-92
2023/04/27 07:53:14;;;;;;;;;;;;;;;14.38;45.46;99546.34;5134806;27;19918;-93
2023/04/27 07:55:40;;;;;;;;;;;;;;;14.49;45.82;99552.16;5136168;27;19919;-92
2023/04/27 07:58:05;;;;;;;;;;;;;;;14.62;44.85;99554.44;5135352;27;20013;-92
2023/04/27 08:00:31;;;;;;;;;;;;;;;14.83;45.49;99551.03;5135707;27;19911;-91
2023/04/27 08:02:56;;;;;;;;;;;;;;;15.09;44.05;99557.22;5135763;27;19907;-91
2023/04/27 08:05:21;;;;;;;;;;;;;;;15.01;43.06;99560.16;5134964;27;19922;-92
2023/04/27 08:07:47;;;;;;;;;;;;;;;14.88;44.14;99563.31;5135703;27;19918;-91
2023/04/27 08:10:12;;;;;;;;;;;;;;;14.65;43.47;99519.81;5135513;27;19987;-92
2023/04/27 08:12:38;;;;;;;;;;;;;;;14.78;42.92;99570.69;5135795;27;19911;-91
2023/04/27 08:15:04;;;;;;;;;;;;;;;14.77;41.62;99559.22;5135101;27;19917;-95
2023/04/27 08:17:29;;;;;;;;;;;;;;;14.76;41.33;99553.97;5146154;27;20006;-92
2023/04/27 08:19:55;;;;;;;;;;;;;;;15.16;45.47;99556.06;5115964;27;19918;-91
2023/04/27 08:22:20;;;;;;;;;;;;;;;15.53;42.42;99559.19;5117724;27;19915;-91
2023/04/27 08:24:45;;;;;;;;;;;;;;;15.67;41.56;99550.69;5117346;27;19926;-91
2023/04/27 08:27:11;;;;;;;;;;;;;;;16.10;41.32;99552.53;5156043;27;19911;-94
2023/04/27 08:29:36;;;;;;;;;;;;;;;15.83;40.43;99543.00;5140022;27;19918;-91
2023/04/27 08:32:02;;;;;;;;;;;;;;;15.62;41.92;99545.53;5141469;27;19933;-91
2023/04/27 08:34:28;;;;;;;;;;;;;;;15.32;40.10;99553.75;5153554;27;19912;-91
2023/04/27 08:36:54;;;;;;;;;;;;;;;15.38;39.49;99542.88;5118975;27;20273;-92
2023/04/27 08:39:19;;;;;;;;;;;;;;;15.69;41.09;99547.03;5116951;27;19912;-90
2023/04/27 08:41:45;;;;;;;;;;;;;;;15.49;40.59;99539.81;5133386;27;19912;-93
2023/04/27 08:44:16;;;;;;;;;;;;;;;15.65;39.70;99533.94;5115134;27;19915;-91
2023/04/27 08:47:17;;;;;;;;;;;;;;;15.81;39.47;99527.09;5132547;27;19988;-91
2023/04/27 08:49:44;;;;;;;;;;;;;;;15.97;38.78;99531.81;5131600;27;19961;-91
2023/04/27 08:52:22;;;;;;;;;;;;;;;16.24;39.67;99530.69;5113544;27;20320;-93
2023/04/27 08:54:47;;;;;;;;;;;;;;;16.40;40.83;99524.75;5114082;27;19911;-92
2023/04/27 08:57:17;;;;;;;;;;;;;;;16.45;41.69;99520.09;5113266;27;19931;-89
2023/04/27 08:59:44;;;;;;;;;;;;;;;16.33;38.87;99521.47;5131885;27;20010;-90
2023/04/27 09:02:38;;;;;;;;;;;;;;;16.20;40.32;99517.59;5095902;27;20340;-93
2023/04/27 09:05:04;;;;;;;;;;;;;;;16.18;39.95;99512.31;5131863;27;19911;-92
2023/04/27 09:07:33;;;;;;;;;;;;;;;16.47;39.03;99507.59;5136784;27;19931;-92
2023/04/27 09:10:05;;;;;;;;;;;;;;;17.09;40.43;99503.16;5142414;27;19915;-90
2023/04/27 09:12:31;;;;;;;;;;;;;;;17.10;39.48;99502.22;5132658;27;19916;-91
2023/04/27 09:14:57;;;;;;;;;;;;;;;16.96;39.41;99504.63;5134153;27;19915;-90
2023/04/27 09:17:25;;;;;;;;;;;;;;;17.16;38.81;99504.63;5130782;27;20017;-91
2023/04/27 09:19:50;;;;;;;;;;;;;;;17.56;38.97;99507.22;5122300;27;19927;-91
2023/04/27 09:22:15;;;;;;;;;;;;;;;17.33;37.80;99506.50;5137543;27;19925;-89
2023/04/27 09:24:51;;;;;;;;;;;;;;;17.21;38.82;99499.06;5134924;27;19922;-91
2023/04/27 09:27:20;;;;;;;;;;;;;;;17.39;37.38;99502.69;5135878;27;19958;-91
2023/04/27 09:29:45;;;;;;;;;;;;;;;17.98;39.17;99498.16;5139992;27;19914;-92
2023/04/27 09:32:19;;;;;;;;;;;;;;;18.07;36.35;99488.81;5135192;27;20357;-93
2023/04/27 09:34:45;;;;;;;;;;;;;;;18.16;38.06;99492.84;5112587;28;19929;-90
2023/04/27 09:37:10;;;;;;;;;;;;;;;17.44;39.75;99489.13;5130820;27;20388;-88
2023/04/27 09:39:36;;;;;;;;;;;;;;;17.43;38.39;99495.44;5136207;27;19941;-87
2023/04/27 09:42:03;;;;;;;;;;;;;;;17.44;36.50;99483.81;5150127;27;20372;-91
2023/04/27 09:44:29;;;;;;;;;;;;;;;17.53;37.24;99478.03;5139727;27;19976;-88
2023/04/27 09:46:56;;;;;;;;;;;;;;;17.11;35.89;99473.75;5138182;27;19918;-89
2023/04/27 09:49:24;;;;;;;;;;;;;;;17.28;37.70;99486.31;5133791;27;19911;-89
2023/04/27 09:51:51;;;;;;;;;;;;;;;17.69;38.39;99471.03;5131461;27;20000;-87
2023/04/27 09:54:17;;;;;;;;;;;;;;;17.83;38.42;99483.72;5137237;27;19915;-87
2023/04/27 09:56:46;;;;;;;;;;;;;;;18.11;36.94;99476.22;5115024;28;19919;-87
2023/04/27 09:59:11;;;;;;;;;;;;;;;18.05;37.73;99478.22;5111640;27;19919;-85
2023/04/27 10:01:45;;;;;;;;;;;;;;;17.87;37.68;99474.66;5135138;27;19907;-87
2023/04/27 10:04:29;;;;;;;;;;;;;;;18.01;37.83;99481.13;5134643;27;20384;-88
2023/04/27 10:07:14;;;;;;;;;;;;;;;17.92;38.62;99469.13;5116226;27;19922;-87
2023/04/27 10:09:45;;;;;;;;;;;;;;;17.55;40.42;99478.84;5116428;27;20305;-88
2023/04/27 10:12:14;;;;;;;;;;;;;;;17.72;40.40;99472.72;5134066;27;19941;-91
2023/04/27 10:14:49;;;;;;;;;;;;;;;17.83;40.15;99473.06;5134877;27;19911;-88
2023/04/27 10:17:15;;;;;;;;;;;;;;;17.41;38.38;99484.84;5115684;27;20364;-90
2023/04/27 10:19:51;;;;;;;;;;;;;;;17.81;39.32;99472.28;5116490;27;19954;-90
2023/04/27 10:22:18;;;;;;;;;;;;;;;17.73;38.13;99471.75;5135088;27;19919;-96
2023/04/27 10:24:47;;;;;;;;;;;;;;;17.47;38.99;99479.22;5116620;27;19915;-88
2023/04/27 10:27:15;;;;;;;;;;;;;;;17.46;39.68;99484.63;5134390;27;19958;-92
2023/04/27 10:29:41;;;;;;;;;;;;;;;17.74;41.01;99477.97;5135212;27;19915;-91
2023/04/27 10:32:11;;;;;;;;;;;;;;;17.69;38.55;99479.06;5134399;27;19990;-92
2023/04/27 10:34:46;;;;;;;;;;;;;;;17.07;39.89;99481.03;5116895;27;19919;-92
2023/04/27 10:37:13;;;;;;;;;;;;;;;17.43;40.06;99474.09;5134611;27;19911;-92
2023/04/27 10:39:42;;;;;;;;;;;;;;;17.42;39.42;99480.34;5116558;27;19918;-93
2023/04/27 10:42:08;;;;;;;;;;;;;;;17.67;40.49;99475.59;5115460;27;20300;-90
2023/04/27 10:44:34;;;;;;;;;;;;;;;17.96;40.55;99473.34;5135235;27;19918;-86
2023/04/27 10:47:01;;;;;;;;;;;;;;;18.03;38.99;99481.94;5134701;27;19917;-87
2023/04/27 10:50:03;;;;;;;;;;;;;;;18.07;39.73;99475.47;5116821;27;19911;-89
2023/04/27 10:55:33;;;;;;;;;;;;;;;18.03;39.56;99476.59;5134475;27;19914;-87
2023/04/27 10:58:00;;;;;;;;;;;;;;;17.83;39.73;99483.72;5133327;27;19915;-89
2023/04/27 11:00:32;;;;;;;;;;;;;;;17.91;40.52;99486.06;5115286;27;20366;-90
2023/04/27 11:03:20;;;;;;;;;;;;;;;17.85;40.63;99484.50;5133566;27;19914;-91
2023/04/27 11:05:47;;;;;;;;;;;;;;;17.78;39.37;99477.75;5114196;27;20372;-90
2023/04/27 11:08:15;;;;;;;;;;;;;;;17.62;40.26;99482.94;5115146;27;19942;-90
2023/04/27 11:10:50;;;;;;;;;;;;;;;17.69;39.71;99483.53;5114829;27;19923;-89
2023/04/27 11:13:16;;;;;;;;;;;;;;;17.61;40.32;99489.22;5133369;27;19918;-91
2023/04/27 11:15:42;;;;;;;;;;;;;;;17.46;41.50;99492.63;5133591;27;19915;-90
2023/04/27 11:18:07;;;;;;;;;;;;;;;16.75;38.73;99495.75;5134030;27;20373;-89
2023/04/27 11:20:33;;;;;;;;;;;;;;;16.35;37.97;99490.34;5133246;27;19961;-92
2023/04/27 11:22:59;;;;;;;;;;;;;;;16.44;38.15;99497.06;5114845;27;19911;-92
2023/04/27 11:25:28;;;;;;;;;;;;;;;16.31;37.71;99498.50;5133954;27;19915;-89
2023/04/27 11:27:55;;;;;;;;;;;;;;;16.29;38.23;99499.44;5134731;27;19918;-91
2023/04/27 11:30:26;;;;;;;;;;;;;;;16.31;38.27;99498.50;5115168;27;20498;-92
2023/04/27 11:32:57;;;;;;;;;;;;;;;16.10;39.19;99496.66;5133383;27;19918;-92
2023/04/27 11:35:52;;;;;;;;;;;;;;;16.34;37.94;99499.22;5114508;27;20327;-89
2023/04/27 11:38:35;;;;;;;;;;;;;;;16.74;37.08;99508.19;5013255;28;19913;-92
2023/04/27 11:41:04;;;;;;;;;;;;;;;16.96;38.70;99504.63;5014680;28;19917;-93
2023/04/27 11:43:32;;;;;;;;;;;;;;;17.03;36.77;99510.56;5030445;28;19992;-94
2023/04/27 11:46:17;;;;;;;;;;;;;;;17.22;37.74;99498.13;5030765;28;20426;-91
2023/04/27 11:48:43;;;;;;;;;;;;;;;17.11;36.77;99501.28;5031374;28;19909;-95
2023/04/27 11:51:47;;;;;;;;;;;;;;;17.35;36.33;99495.78;5013560;28;19937;-91
2023/04/27 11:54:23;;;;;;;;;;;;;;;17.62;37.18;99498.09;4990871;28;19909;-91
2023/04/27 11:56:48;;;;;;;;;;;;;;;17.76;35.81;99494.75;4974761;28;20307;-90
2023/04/27 11:59:31;;;;;;;;;;;;;;;17.93;37.23;99486.84;4990440;28;20005;-93
2023/04/27 12:01:59;;;;;;;;;;;;;;;18.09;34.15;99489.63;4990705;28;19921;-94
2023/04/27 12:04:31;;;;;;;;;;;;;;;17.72;34.80;99502.06;4990567;28;19914;-92
2023/04/27 12:07:07;;;;;;;;;;;;;;;17.41;33.87;99498.16;4990954;28;19913;-94
2023/04/27 12:09:35;;;;;;;;;;;;;;;17.63;37.58;99489.16;4971080;28;19914;-91
2023/04/27 12:12:06;;;;;;;;;;;;;;;17.82;35.43;99484.66;4989861;28;20012;-93
2023/04/27 12:17:59;;;;;;;;;;;;;;;18.01;32.86;99484.69;4992033;28;20375;-92
2023/04/27 12:20:25;;;;;;;;;;;;;;;18.12;34.13;99492.16;4989910;28;19918;-91
2023/04/27 12:22:51;;;;;;;;;;;;;;;18.60;34.92;99481.75;4988968;28;19913;-91
2023/04/27 12:25:17;;;;;;;;;;;;;;;18.71;34.40;99479.38;4989885;28;20447;-92
2023/04/27 12:27:46;;;;;;;;;;;;;;;18.46;31.82;99492.25;4973730;28;20048;-92
2023/04/27 12:30:20;;;;;;;;;;;;;;;18.59;32.68;99483.53;4973521;28;19914;-93
2023/04/27 12:33:00;;;;;;;;;;;;;;;18.21;33.07;99486.34;4989796;28;20376;-95
2023/04/27 12:35:25;;;;;;;;;;;;;;;18.34;33.81;99489.28;4974268;28;19924;-91
2023/04/27 12:37:52;;;;;;;;;;;;;;;18.34;32.96;99485.75;4989929;28;19914;-93
2023/04/27 12:40:17;;;;;;;;;;;;;;;18.17;32.62;99490.13;4990444;28;20705;-96
2023/04/27 12:42:44;;;;;;;;;;;;;;;17.97;32.66;99488.41;4990020;28;19909;-90
2023/04/27 12:45:34;;;;;;;;;;;;;;;17.84;33.07;99477.47;4990421;28;19941;-90
2023/04/27 12:48:02;;;;;;;;;;;;;;;17.96;32.25;99486.69;4989640;28;20319;-92
2023/04/27 12:50:36;;;;;;;;;;;;;;;18.42;34.40;99475.53;4996176;28;20114;-90
2023/04/27 12:53:02;;;;;;;;;;;;;;;18.90;32.36;99487.31;5071494;28;19946;-91
2023/04/27 12:55:36;;;;;;;;;;;;;;;18.96;33.06;99478.97;5122631;27;19915;-92
2023/04/27 12:58:03;;;;;;;;;;;;;;;19.06;33.63;99478.47;5132041;27;19915;-90